Time;durP1;ratioP1;P1;durP2;ratioP2;P2;SDS_P1;SDS_P2;PMS_P1;PMS_P2;Temp;Humidity;BMP_temperature;BMP_pressure;BME280_temperature;BME280_humidity;BME280_pressure;Samples;Min_cycle;Max_cycle;Signal;HPM_P1;HPM_P2
2022/08/01 00:00:09;;;;;;;7.72;4.38;;;;;;;;;;5031927;28;20242;-14
2022/08/01 00:02:37;;;;;;;4.95;3.78;;;;;;;;;;5031993;28;20276;-14
2022/08/01 00:05:06;;;;;;;6.85;4.18;;;;;;;;;;5031142;28;20263;-14
2022/08/01 00:07:33;;;;;;;4.68;3.95;;;;;;;;;;5032028;28;20230;-14
2022/08/01 00:10:01;;;;;;;6.45;3.80;;;;;;;;;;5031874;28;20590;-14
2022/08/01 00:12:28;;;;;;;5.85;3.60;;;;;;;;;;5031490;28;20722;-14
2022/08/01 00:14:56;;;;;;;6.38;3.90;;;;;;;;;;5031799;28;20329;-14
2022/08/01 00:17:24;;;;;;;6.70;3.92;;;;;;;;;;5031955;28;20223;-14
2022/08/01 00:19:52;;;;;;;4.55;3.95;;;;;;;;;;5030764;28;20239;-14
2022/08/01 00:22:19;;;;;;;4.35;3.72;;;;;;;;;;5030833;28;20231;-14
2022/08/01 00:24:46;;;;;;;4.45;3.47;;;;;;;;;;5031110;28;20247;-14
2022/08/01 00:27:14;;;;;;;6.60;3.65;;;;;;;;;;5031443;28;20245;-14
2022/08/01 00:29:43;;;;;;;5.13;3.70;;;;;;;;;;5031042;28;20250;-14
2022/08/01 00:32:32;;;;;;;3.63;3.22;;;;;;;;;;5031424;28;20245;-14
2022/08/01 00:34:59;;;;;;;5.60;3.92;;;;;;;;;;5030736;28;20235;-14
2022/08/01 00:37:26;;;;;;;3.83;3.40;;;;;;;;;;5031137;28;20227;-14
2022/08/01 00:39:54;;;;;;;5.15;3.30;;;;;;;;;;5031125;28;20321;-14
2022/08/01 00:42:21;;;;;;;4.35;3.22;;;;;;;;;;5029567;28;20238;-14
2022/08/01 00:44:49;;;;;;;4.70;3.45;;;;;;;;;;5031360;28;20955;-14
2022/08/01 00:47:16;;;;;;;3.60;3.10;;;;;;;;;;5031222;28;20326;-14
2022/08/01 00:49:45;;;;;;;3.60;3.30;;;;;;;;;;5031468;28;20234;-14
2022/08/01 00:52:12;;;;;;;5.00;2.97;;;;;;;;;;5026433;28;20235;-14
2022/08/01 00:54:39;;;;;;;5.47;3.35;;;;;;;;;;5030820;28;20234;-14
2022/08/01 00:57:07;;;;;;;3.20;2.85;;;;;;;;;;5031241;28;20225;-14
2022/08/01 00:59:37;;;;;;;3.72;2.97;;;;;;;;;;5031090;28;20238;-14
2022/08/01 01:02:07;;;;;;;4.28;2.67;;;;;;;;;;5031135;28;20317;-14
2022/08/01 01:04:42;;;;;;;4.03;2.90;;;;;;;;;;5022469;28;20222;-14
2022/08/01 01:07:13;;;;;;;3.80;2.88;;;;;;;;;;5030737;28;20338;-14
2022/08/01 01:09:43;;;;;;;4.32;2.97;;;;;;;;;;5030963;28;20231;-14
2022/08/01 01:12:13;;;;;;;4.60;2.67;;;;;;;;;;5030916;28;20701;-14
2022/08/01 01:14:45;;;;;;;3.10;2.80;;;;;;;;;;5030201;28;20238;-15
2022/08/01 01:17:13;;;;;;;3.13;2.80;;;;;;;;;;5031311;28;20231;-14
2022/08/01 01:19:42;;;;;;;2.92;2.60;;;;;;;;;;5030033;28;20235;-14
2022/08/01 01:22:19;;;;;;;3.97;2.67;;;;;;;;;;5030710;28;20230;-14
2022/08/01 01:24:49;;;;;;;4.47;3.00;;;;;;;;;;5028655;28;20250;-14
2022/08/01 01:27:19;;;;;;;4.30;2.65;;;;;;;;;;5029095;28;20430;-14
2022/08/01 01:29:49;;;;;;;3.33;2.63;;;;;;;;;;5021348;28;20235;-14
2022/08/01 01:32:29;;;;;;;3.42;2.45;;;;;;;;;;5028154;28;20266;-14
2022/08/01 01:34:57;;;;;;;3.38;2.70;;;;;;;;;;5036965;28;21032;-14
2022/08/01 01:37:25;;;;;;;3.53;2.80;;;;;;;;;;5030151;28;20373;-14
2022/08/01 01:39:52;;;;;;;3.65;2.70;;;;;;;;;;5030411;28;20241;-14
2022/08/01 01:42:20;;;;;;;7.68;2.75;;;;;;;;;;5030481;28;20233;-14
2022/08/01 01:44:49;;;;;;;3.20;2.67;;;;;;;;;;5027947;28;20983;-14
2022/08/01 01:47:17;;;;;;;3.70;3.00;;;;;;;;;;5034609;28;21026;-14
2022/08/01 01:49:44;;;;;;;4.22;2.60;;;;;;;;;;5030273;28;20321;-14
2022/08/01 01:52:12;;;;;;;4.28;3.10;;;;;;;;;;5030296;28;20330;-14
2022/08/01 01:54:40;;;;;;;3.13;2.50;;;;;;;;;;5032638;28;20724;-14
2022/08/01 01:57:07;;;;;;;2.90;2.35;;;;;;;;;;5033222;28;20246;-14
2022/08/01 01:59:35;;;;;;;3.47;2.58;;;;;;;;;;5034187;28;20226;-14
2022/08/01 02:02:04;;;;;;;5.38;2.95;;;;;;;;;;5033444;28;20257;-14
2022/08/01 02:04:33;;;;;;;3.40;2.80;;;;;;;;;;5020300;28;20231;-14
2022/08/01 02:07:01;;;;;;;5.03;2.78;;;;;;;;;;5033885;28;20239;-14
2022/08/01 02:09:28;;;;;;;3.58;2.60;;;;;;;;;;5032147;28;20227;-14
2022/08/01 02:11:55;;;;;;;3.63;2.53;;;;;;;;;;5033293;28;20231;-14
2022/08/01 02:14:35;;;;;;;3.50;2.70;;;;;;;;;;5030305;28;20717;-14
2022/08/01 02:17:04;;;;;;;4.07;2.70;;;;;;;;;;5033489;28;20732;-14
2022/08/01 02:19:32;;;;;;;2.72;2.42;;;;;;;;;;5032546;28;20709;-14
2022/08/01 02:22:05;;;;;;;2.72;2.45;;;;;;;;;;5072470;22;20241;-18
2022/08/01 02:24:36;;;;;;;4.38;2.47;;;;;;;;;;5072000;28;20230;-19
2022/08/01 02:27:05;;;;;;;3.03;2.63;;;;;;;;;;5074433;28;20573;-18
2022/08/01 02:29:39;;;;;;;3.17;2.88;;;;;;;;;;5092518;28;20225;-18
2022/08/01 02:32:08;;;;;;;2.67;2.42;;;;;;;;;;5078718;28;20231;-18
2022/08/01 02:34:35;;;;;;;4.47;2.53;;;;;;;;;;5078932;28;20239;-18
2022/08/01 02:37:03;;;;;;;3.92;2.42;;;;;;;;;;5079297;28;20312;-18
2022/08/01 02:39:30;;;;;;;3.10;2.47;;;;;;;;;;5086520;28;20233;-18
2022/08/01 02:41:59;;;;;;;4.03;2.60;;;;;;;;;;5085325;28;20778;-18
2022/08/01 02:44:28;;;;;;;3.90;2.60;;;;;;;;;;5079700;28;20233;-17
2022/08/01 02:46:56;;;;;;;3.60;2.63;;;;;;;;;;5084497;28;20233;-18
2022/08/01 02:49:25;;;;;;;2.70;2.22;;;;;;;;;;5093354;28;20228;-18
2022/08/01 02:51:53;;;;;;;2.40;2.17;;;;;;;;;;5093563;28;20312;-18
2022/08/01 02:54:21;;;;;;;3.10;2.20;;;;;;;;;;5090190;28;20233;-18
2022/08/01 02:56:48;;;;;;;4.97;2.35;;;;;;;;;;5086383;28;20356;-17
2022/08/01 02:59:16;;;;;;;2.80;2.30;;;;;;;;;;5092659;28;20228;-17
2022/08/01 03:01:48;;;;;;;3.88;2.60;;;;;;;;;;5079613;28;21139;-18
2022/08/01 03:04:17;;;;;;;2.50;2.05;;;;;;;;;;5076212;28;20276;-17
2022/08/01 03:06:46;;;;;;;2.70;2.17;;;;;;;;;;5064214;28;20229;-17
2022/08/01 03:09:13;;;;;;;3.45;1.95;;;;;;;;;;5093211;28;20235;-18
2022/08/01 03:11:43;;;;;;;3.35;2.40;;;;;;;;;;5093079;28;21023;-18
2022/08/01 03:14:11;;;;;;;2.10;1.88;;;;;;;;;;5079032;28;20325;-18
2022/08/01 03:16:38;;;;;;;2.30;2.10;;;;;;;;;;5070467;28;20233;-17
2022/08/01 03:19:06;;;;;;;3.30;2.50;;;;;;;;;;5092954;28;20221;-17
2022/08/01 03:21:34;;;;;;;4.47;2.22;;;;;;;;;;5091957;28;20746;-17
2022/08/01 03:24:03;;;;;;;5.15;2.38;;;;;;;;;;5092389;28;21005;-17
2022/08/01 03:26:31;;;;;;;5.13;2.40;;;;;;;;;;5080966;28;20232;-17
2022/08/01 03:29:00;;;;;;;3.42;2.53;;;;;;;;;;5093365;28;20229;-17
2022/08/01 03:31:27;;;;;;;3.13;2.58;;;;;;;;;;5074863;28;20244;-17
2022/08/01 03:33:54;;;;;;;2.85;2.55;;;;;;;;;;5091895;28;20232;-17
2022/08/01 03:36:23;;;;;;;3.50;2.38;;;;;;;;;;5081074;28;20237;-17
2022/08/01 03:38:51;;;;;;;2.67;2.47;;;;;;;;;;5089836;28;20225;-17
2022/08/01 03:41:20;;;;;;;2.30;2.10;;;;;;;;;;5092518;28;20243;-17
2022/08/01 03:43:49;;;;;;;3.33;2.70;;;;;;;;;;5076297;28;20236;-17
2022/08/01 03:46:18;;;;;;;2.92;2.33;;;;;;;;;;5090760;28;20960;-17
2022/08/01 03:48:47;;;;;;;3.08;2.40;;;;;;;;;;5078309;28;20233;-17
2022/08/01 03:51:14;;;;;;;3.17;2.63;;;;;;;;;;5092297;28;20221;-17
2022/08/01 03:53:42;;;;;;;2.60;2.40;;;;;;;;;;5092394;28;20766;-17
2022/08/01 03:56:09;;;;;;;2.65;2.45;;;;;;;;;;5092312;28;20233;-17
2022/08/01 03:58:38;;;;;;;2.97;2.65;;;;;;;;;;5087421;28;20221;-17
2022/08/01 04:01:06;;;;;;;3.15;2.55;;;;;;;;;;5086816;28;20732;-17
2022/08/01 04:03:42;;;;;;;3.58;2.67;;;;;;;;;;5092158;28;20236;-17
2022/08/01 04:06:10;;;;;;;3.15;2.35;;;;;;;;;;5092074;28;20290;-17
2022/08/01 04:08:37;;;;;;;2.97;2.50;;;;;;;;;;5092271;28;20236;-17
2022/08/01 04:11:05;;;;;;;2.67;2.47;;;;;;;;;;5077759;28;21562;-17
2022/08/01 04:13:32;;;;;;;3.13;2.60;;;;;;;;;;5075886;28;20611;-17
2022/08/01 04:16:06;;;;;;;2.95;2.20;;;;;;;;;;5069298;28;20363;-17
2022/08/01 04:18:34;;;;;;;3.10;2.65;;;;;;;;;;5083756;28;20229;-17
2022/08/01 04:21:01;;;;;;;3.08;2.17;;;;;;;;;;5083379;28;20336;-17
2022/08/01 04:23:28;;;;;;;2.40;2.20;;;;;;;;;;5091661;28;20240;-17
2022/08/01 04:25:56;;;;;;;3.42;2.67;;;;;;;;;;5091787;28;20233;-17
2022/08/01 04:28:23;;;;;;;2.53;2.33;;;;;;;;;;5091493;28;20229;-17
2022/08/01 04:30:51;;;;;;;2.78;2.15;;;;;;;;;;5084689;28;20233;-17
2022/08/01 04:33:19;;;;;;;2.40;2.20;;;;;;;;;;5089671;28;20315;-17
2022/08/01 04:35:47;;;;;;;3.08;2.40;;;;;;;;;;5085527;28;20711;-17
2022/08/01 04:38:30;;;;;;;5.35;2.38;;;;;;;;;;5085388;28;20323;-17
2022/08/01 04:40:58;;;;;;;2.80;2.50;;;;;;;;;;5091786;28;20232;-17
2022/08/01 04:43:34;;;;;;;2.42;2.20;;;;;;;;;;5064869;28;20260;-17
2022/08/01 04:46:03;;;;;;;2.63;2.30;;;;;;;;;;5083679;28;20224;-17
2022/08/01 04:48:32;;;;;;;3.03;2.53;;;;;;;;;;5091587;28;20606;-17
2022/08/01 04:50:59;;;;;;;2.38;2.17;;;;;;;;;;5091718;28;20741;-17
2022/08/01 04:53:27;;;;;;;2.28;1.92;;;;;;;;;;5090044;28;20228;-17
2022/08/01 04:55:55;;;;;;;2.08;1.88;;;;;;;;;;5091680;28;20239;-17
2022/08/01 04:58:22;;;;;;;5.05;2.58;;;;;;;;;;5091203;28;20703;-17
2022/08/01 05:00:50;;;;;;;2.28;2.03;;;;;;;;;;5083639;28;20263;-17
2022/08/01 05:03:17;;;;;;;2.63;1.90;;;;;;;;;;5073316;28;20240;-17
2022/08/01 05:05:46;;;;;;;2.15;1.95;;;;;;;;;;5086088;28;20235;-17
2022/08/01 05:08:13;;;;;;;1.70;1.60;;;;;;;;;;5091251;28;20712;-17
2022/08/01 05:10:41;;;;;;;2.92;2.22;;;;;;;;;;5091103;28;20240;-17
2022/08/01 05:13:08;;;;;;;2.30;2.10;;;;;;;;;;5089076;28;20224;-17
2022/08/01 05:15:36;;;;;;;2.10;1.90;;;;;;;;;;5077849;28;20233;-17
2022/08/01 05:18:03;;;;;;;4.68;1.80;;;;;;;;;;5089355;28;20683;-17
2022/08/01 05:20:31;;;;;;;2.20;1.90;;;;;;;;;;5090549;28;20390;-17
2022/08/01 05:23:00;;;;;;;3.25;2.00;;;;;;;;;;5091095;28;20240;-17
2022/08/01 05:25:28;;;;;;;3.60;1.85;;;;;;;;;;5087426;28;20648;-17
2022/08/01 05:28:15;;;;;;;3.33;2.00;;;;;;;;;;5087811;28;20237;-17
2022/08/01 05:30:45;;;;;;;2.05;1.80;;;;;;;;;;5085466;28;20267;-17
2022/08/01 05:33:12;;;;;;;2.00;1.83;;;;;;;;;;5087850;28;20232;-17
2022/08/01 05:35:40;;;;;;;3.70;1.88;;;;;;;;;;5090761;28;20243;-17
2022/08/01 05:38:16;;;;;;;2.03;1.83;;;;;;;;;;5084701;28;20228;-17
2022/08/01 05:40:44;;;;;;;2.25;1.48;;;;;;;;;;5085847;28;20245;-17
2022/08/01 05:43:11;;;;;;;1.80;1.70;;;;;;;;;;5062581;28;20241;-17
2022/08/01 05:45:41;;;;;;;2.92;1.40;;;;;;;;;;5084027;28;20820;-17
2022/08/01 05:48:08;;;;;;;1.95;1.30;;;;;;;;;;5080709;28;20237;-17
2022/08/01 05:50:35;;;;;;;5.07;1.20;;;;;;;;;;5083333;28;20229;-17
2022/08/01 05:53:03;;;;;;;1.90;1.30;;;;;;;;;;5090056;28;20229;-17
2022/08/01 05:55:31;;;;;;;1.77;1.20;;;;;;;;;;5090086;28;20232;-17
2022/08/01 05:57:59;;;;;;;1.52;1.13;;;;;;;;;;5090701;28;20698;-17
2022/08/01 06:00:26;;;;;;;1.30;0.85;;;;;;;;;;5080958;28;20621;-17
2022/08/01 06:02:54;;;;;;;1.13;1.02;;;;;;;;;;5089728;28;20629;-17
2022/08/01 06:05:21;;;;;;;1.02;0.93;;;;;;;;;;5090360;28;20701;-17
2022/08/01 06:07:48;;;;;;;1.08;0.98;;;;;;;;;;5086480;28;20236;-17
2022/08/01 06:10:16;;;;;;;0.80;0.80;;;;;;;;;;5069335;28;20230;-17
2022/08/01 06:12:44;;;;;;;1.67;1.10;;;;;;;;;;5080586;28;20245;-17
2022/08/01 06:15:12;;;;;;;2.25;1.00;;;;;;;;;;5089001;28;20237;-17
2022/08/01 06:17:41;;;;;;;1.42;0.90;;;;;;;;;;5084550;28;21001;-17
2022/08/01 06:20:09;;;;;;;1.20;1.10;;;;;;;;;;5089491;28;20274;-17
2022/08/01 06:22:36;;;;;;;1.10;0.90;;;;;;;;;;5083224;28;20245;-17
2022/08/01 06:25:04;;;;;;;0.90;0.80;;;;;;;;;;5075855;28;20229;-17
2022/08/01 06:27:32;;;;;;;1.10;0.85;;;;;;;;;;5090294;28;20782;-17
2022/08/01 06:30:01;;;;;;;0.85;0.75;;;;;;;;;;5090283;28;20233;-20
2022/08/01 06:32:29;;;;;;;1.00;0.80;;;;;;;;;;5080272;28;20229;-17
2022/08/01 06:34:56;;;;;;;1.67;0.85;;;;;;;;;;5090031;28;20236;-17
2022/08/01 06:37:24;;;;;;;3.25;0.90;;;;;;;;;;5075876;28;20239;-17
2022/08/01 06:39:51;;;;;;;1.15;1.05;;;;;;;;;;5090548;28;20488;-17
2022/08/01 06:42:18;;;;;;;1.20;0.82;;;;;;;;;;5073479;28;20243;-17
2022/08/01 06:44:46;;;;;;;0.80;0.80;;;;;;;;;;5083878;28;20331;-17
2022/08/01 06:47:15;;;;;;;1.10;1.00;;;;;;;;;;5091610;28;20316;-17
2022/08/01 06:49:42;;;;;;;1.00;0.90;;;;;;;;;;5093205;28;20237;-17
2022/08/01 06:52:09;;;;;;;1.33;0.70;;;;;;;;;;5093367;28;20925;-17
2022/08/01 06:54:37;;;;;;;0.80;0.80;;;;;;;;;;5087098;28;20233;-17
2022/08/01 06:57:05;;;;;;;1.35;1.00;;;;;;;;;;5093281;28;20225;-17
2022/08/01 06:59:32;;;;;;;0.95;0.80;;;;;;;;;;5093278;28;20614;-17
2022/08/01 07:02:00;;;;;;;0.70;0.70;;;;;;;;;;5088878;28;20772;-17
2022/08/01 07:04:29;;;;;;;1.88;0.90;;;;;;;;;;5089103;28;20320;-17
2022/08/01 07:06:57;;;;;;;0.90;0.60;;;;;;;;;;5083385;28;20233;-17
2022/08/01 07:09:24;;;;;;;0.88;0.65;;;;;;;;;;5090323;28;20895;-17
2022/08/01 07:11:52;;;;;;;0.85;0.80;;;;;;;;;;5081638;28;20322;-17
2022/08/01 07:14:20;;;;;;;0.80;0.80;;;;;;;;;;5084125;28;20288;-17
2022/08/01 07:16:47;;;;;;;2.05;0.80;;;;;;;;;;5085497;28;20229;-17
2022/08/01 07:19:14;;;;;;;1.45;0.75;;;;;;;;;;5092955;28;20691;-17
2022/08/01 07:21:43;;;;;;;0.93;0.80;;;;;;;;;;5086211;28;20360;-17
2022/08/01 07:24:13;;;;;;;2.33;0.80;;;;;;;;;;5085363;28;20256;-17
2022/08/01 07:26:41;;;;;;;0.77;0.77;;;;;;;;;;5087247;28;20229;-17
2022/08/01 07:29:20;;;;;;;1.67;1.02;;;;;;;;;;5086044;28;20361;-17
2022/08/01 07:31:47;;;;;;;0.77;0.77;;;;;;;;;;5082616;28;20228;-17
2022/08/01 07:34:15;;;;;;;2.55;0.88;;;;;;;;;;5092472;28;20237;-17
2022/08/01 07:36:44;;;;;;;1.20;0.80;;;;;;;;;;5078521;28;20230;-17
2022/08/01 07:39:11;;;;;;;0.90;0.80;;;;;;;;;;5064659;28;20221;-17
2022/08/01 07:41:39;;;;;;;1.90;1.10;;;;;;;;;;5090649;28;20239;-17
2022/08/01 07:44:26;;;;;;;1.25;1.02;;;;;;;;;;5067212;28;20237;-17
2022/08/01 07:46:55;;;;;;;1.70;0.93;;;;;;;;;;5091096;28;20253;-17
2022/08/01 07:49:22;;;;;;;3.08;0.90;;;;;;;;;;5077871;28;20237;-17
2022/08/01 07:51:51;;;;;;;1.50;0.70;;;;;;;;;;5091848;28;20315;-17
2022/08/01 07:54:39;;;;;;;1.05;0.90;;;;;;;;;;5092520;28;20707;-17
2022/08/01 07:57:06;;;;;;;1.50;0.90;;;;;;;;;;5091621;28;20312;-17
2022/08/01 07:59:34;;;;;;;1.23;0.70;;;;;;;;;;5087205;28;20221;-17
2022/08/01 08:02:01;;;;;;;0.85;0.75;;;;;;;;;;5084540;28;20320;-17
2022/08/01 08:04:29;;;;;;;0.85;0.68;;;;;;;;;;5092078;28;20332;-17
2022/08/01 08:06:58;;;;;;;2.22;0.88;;;;;;;;;;5092022;28;20969;-17
2022/08/01 08:09:25;;;;;;;1.25;1.00;;;;;;;;;;5092141;28;20636;-17
2022/08/01 08:11:52;;;;;;;1.17;0.90;;;;;;;;;;5081480;28;20232;-17
2022/08/01 08:14:22;;;;;;;1.15;0.85;;;;;;;;;;5083153;28;20319;-17
2022/08/01 08:16:58;;;;;;;1.67;0.80;;;;;;;;;;5085401;28;20859;-17
2022/08/01 08:19:28;;;;;;;1.85;0.90;;;;;;;;;;5091950;28;20225;-17
2022/08/01 08:22:06;;;;;;;1.27;0.85;;;;;;;;;;5081814;28;21165;-17
2022/08/01 08:24:34;;;;;;;1.33;0.90;;;;;;;;;;5087573;28;20288;-17
2022/08/01 08:27:01;;;;;;;1.85;1.02;;;;;;;;;;5091888;28;20224;-17
2022/08/01 08:29:31;;;;;;;2.55;1.10;;;;;;;;;;5091524;28;21020;-17
2022/08/01 08:31:59;;;;;;;2.53;1.25;;;;;;;;;;5082590;28;20239;-17
2022/08/01 08:34:26;;;;;;;1.88;1.25;;;;;;;;;;5084621;28;20632;-17
2022/08/01 08:36:54;;;;;;;2.17;1.20;;;;;;;;;;5077239;28;20233;-17
2022/08/01 08:39:23;;;;;;;3.25;1.13;;;;;;;;;;5092076;28;20228;-17
2022/08/01 08:41:50;;;;;;;2.47;1.00;;;;;;;;;;5073352;28;20240;-17
2022/08/01 08:44:18;;;;;;;1.98;1.00;;;;;;;;;;5066469;28;20963;-18
2022/08/01 08:46:45;;;;;;;2.17;1.10;;;;;;;;;;5083473;28;20231;-17
2022/08/01 08:49:14;;;;;;;3.55;1.30;;;;;;;;;;5091470;28;20773;-17
2022/08/01 08:51:42;;;;;;;2.78;1.10;;;;;;;;;;5091775;28;20973;-17
2022/08/01 08:54:11;;;;;;;2.28;1.10;;;;;;;;;;5090436;28;20225;-17
2022/08/01 08:56:40;;;;;;;2.20;1.10;;;;;;;;;;5071318;28;20232;-17
2022/08/01 08:59:07;;;;;;;4.78;1.80;;;;;;;;;;5091531;28;20225;-17
2022/08/01 09:01:35;;;;;;;2.90;1.30;;;;;;;;;;5087418;28;20239;-17
2022/08/01 09:04:02;;;;;;;3.05;1.45;;;;;;;;;;5090513;28;20233;-17
2022/08/01 09:06:30;;;;;;;2.80;1.38;;;;;;;;;;5085714;28;20319;-17
2022/08/01 09:08:57;;;;;;;3.33;1.40;;;;;;;;;;5091283;28;20648;-17
2022/08/01 09:11:24;;;;;;;3.80;1.38;;;;;;;;;;5088900;28;20232;-17
2022/08/01 09:14:09;;;;;;;3.72;1.80;;;;;;;;;;5074041;28;20616;-17
2022/08/01 09:16:37;;;;;;;4.13;1.55;;;;;;;;;;5072034;28;20312;-17
2022/08/01 09:19:08;;;;;;;3.50;1.50;;;;;;;;;;5083893;28;20225;-17
2022/08/01 09:21:56;;;;;;;3.45;1.23;;;;;;;;;;5090416;28;20236;-17
2022/08/01 09:24:25;;;;;;;4.15;1.60;;;;;;;;;;5090797;28;20313;-17
2022/08/01 09:26:57;;;;;;;2.97;1.60;;;;;;;;;;5090766;28;20336;-17
2022/08/01 09:29:27;;;;;;;5.82;1.60;;;;;;;;;;5084440;28;20389;-17
2022/08/01 09:32:05;;;;;;;3.28;1.60;;;;;;;;;;5081562;28;20655;-17
2022/08/01 09:34:36;;;;;;;6.70;1.92;;;;;;;;;;5090846;28;20252;-17
2022/08/01 09:37:05;;;;;;;3.55;1.58;;;;;;;;;;5072487;28;20244;-17
2022/08/01 09:39:36;;;;;;;4.68;1.58;;;;;;;;;;5085542;28;20328;-17
2022/08/01 09:42:18;;;;;;;3.35;1.88;;;;;;;;;;5078088;28;20605;-17
2022/08/01 09:44:47;;;;;;;2.05;1.60;;;;;;;;;;5090782;28;20321;-17
2022/08/01 09:47:21;;;;;;;5.30;2.13;;;;;;;;;;5089016;28;20733;-17
2022/08/01 09:49:53;;;;;;;3.25;1.60;;;;;;;;;;5083812;28;20229;-17
2022/08/01 09:52:24;;;;;;;3.13;1.70;;;;;;;;;;5073281;28;20339;-17
2022/08/01 09:54:53;;;;;;;5.07;2.10;;;;;;;;;;5090399;28;20225;-17
2022/08/01 09:57:21;;;;;;;3.15;1.67;;;;;;;;;;5090574;28;20236;-17
2022/08/01 09:59:50;;;;;;;4.10;1.55;;;;;;;;;;5090639;28;20302;-17
2022/08/01 10:02:28;;;;;;;5.07;1.70;;;;;;;;;;5082215;28;20240;-17
2022/08/01 10:04:56;;;;;;;6.40;2.30;;;;;;;;;;5082232;28;20316;-17
2022/08/01 10:07:30;;;;;;;3.70;2.05;;;;;;;;;;5085316;28;20228;-17
2022/08/01 10:10:11;;;;;;;2.55;1.67;;;;;;;;;;5090316;28;20327;-17
2022/08/01 10:12:38;;;;;;;3.33;1.90;;;;;;;;;;5077743;28;20230;-17
2022/08/01 10:15:13;;;;;;;4.88;1.60;;;;;;;;;;5090582;28;20315;-17
2022/08/01 10:17:40;;;;;;;4.45;1.67;;;;;;;;;;5088480;28;20323;-17
2022/08/01 10:20:17;;;;;;;4.22;2.15;;;;;;;;;;5094408;28;20229;-17
2022/08/01 10:22:58;;;;;;;4.22;1.80;;;;;;;;;;5088120;28;20241;-17
2022/08/01 10:25:28;;;;;;;3.10;1.77;;;;;;;;;;5093965;28;20237;-17
2022/08/01 10:28:11;;;;;;;5.10;2.15;;;;;;;;;;5079084;28;20220;-17
2022/08/01 10:30:40;;;;;;;2.83;1.95;;;;;;;;;;5089172;28;20233;-17
2022/08/01 10:33:10;;;;;;;4.95;2.15;;;;;;;;;;5089093;28;20225;-17
2022/08/01 10:35:46;;;;;;;3.92;2.03;;;;;;;;;;5067045;28;20233;-17
2022/08/01 10:38:14;;;;;;;6.43;1.85;;;;;;;;;;5085819;28;20229;-17
2022/08/01 10:40:42;;;;;;;8.70;2.08;;;;;;;;;;5093506;28;20358;-17
2022/08/01 10:43:10;;;;;;;2.95;1.92;;;;;;;;;;5075054;28;20984;-17
2022/08/01 10:45:37;;;;;;;6.20;2.00;;;;;;;;;;5078167;28;20241;-17
2022/08/01 10:48:07;;;;;;;4.05;1.80;;;;;;;;;;5093948;28;20225;-17
2022/08/01 10:50:38;;;;;;;4.13;2.22;;;;;;;;;;5093456;28;20236;-17
2022/08/01 10:53:07;;;;;;;2.22;1.63;;;;;;;;;;5092826;28;20281;-17
2022/08/01 10:55:50;;;;;;;3.55;1.85;;;;;;;;;;5089182;28;20225;-17
2022/08/01 10:58:21;;;;;;;4.50;2.22;;;;;;;;;;5093238;28;20338;-17
2022/08/01 11:00:48;;;;;;;5.05;2.05;;;;;;;;;;5089138;28;20244;-17
2022/08/01 11:03:17;;;;;;;4.18;2.38;;;;;;;;;;5093335;28;20255;-18
2022/08/01 11:06:04;;;;;;;5.15;2.35;;;;;;;;;;5092989;28;20240;-17
2022/08/01 11:08:35;;;;;;;4.50;1.95;;;;;;;;;;5083152;28;20233;-17
2022/08/01 11:11:04;;;;;;;4.13;2.20;;;;;;;;;;5089885;28;20221;-18
2022/08/01 11:14:01;;;;;;;4.30;1.90;;;;;;;;;;5071081;28;20228;-17
2022/08/01 11:16:28;;;;;;;4.00;2.20;;;;;;;;;;5085844;28;20224;-17
2022/08/01 11:18:57;;;;;;;4.13;2.08;;;;;;;;;;5088241;28;20259;-17
2022/08/01 11:21:32;;;;;;;2.85;1.90;;;;;;;;;;5092294;28;20270;-17
2022/08/01 11:24:27;;;;;;;2.97;1.92;;;;;;;;;;5093084;28;20233;-17
2022/08/01 11:27:09;;;;;;;3.55;1.90;;;;;;;;;;5065366;28;20236;-17
2022/08/01 11:29:36;;;;;;;5.50;2.17;;;;;;;;;;5080285;28;20232;-17
2022/08/01 11:32:19;;;;;;;4.88;1.83;;;;;;;;;;5083302;28;20225;-17
2022/08/01 11:34:56;;;;;;;5.55;2.00;;;;;;;;;;5093110;28;20712;-17
2022/08/01 11:37:24;;;;;;;4.18;2.05;;;;;;;;;;5078555;28;20228;-17
2022/08/01 11:40:14;;;;;;;4.28;1.77;;;;;;;;;;5084704;28;20245;-17
2022/08/01 11:42:43;;;;;;;4.18;2.08;;;;;;;;;;5060305;28;20240;-17
2022/08/01 11:45:11;;;;;;;5.07;2.55;;;;;;;;;;5084227;28;20335;-17
2022/08/01 11:47:45;;;;;;;3.97;2.25;;;;;;;;;;5064964;28;20233;-17
2022/08/01 11:50:32;;;;;;;7.43;2.20;;;;;;;;;;5090837;28;20235;-17
2022/08/01 11:53:00;;;;;;;4.35;2.10;;;;;;;;;;5067705;28;20232;-17
2022/08/01 11:55:27;;;;;;;4.93;2.05;;;;;;;;;;5092401;28;20236;-17
2022/08/01 11:57:59;;;;;;;3.90;2.10;;;;;;;;;;5079113;28;20262;-17
2022/08/01 12:00:26;;;;;;;3.85;2.40;;;;;;;;;;5089120;28;20407;-17
2022/08/01 12:02:57;;;;;;;5.18;2.10;;;;;;;;;;5081044;28;20582;-17
2022/08/01 12:05:27;;;;;;;3.20;1.80;;;;;;;;;;5092081;28;20225;-17
2022/08/01 12:07:59;;;;;;;6.00;2.20;;;;;;;;;;5091984;28;20316;-17
2022/08/01 12:10:28;;;;;;;5.25;1.92;;;;;;;;;;5091381;28;20260;-17
2022/08/01 12:12:56;;;;;;;3.40;1.88;;;;;;;;;;5075773;28;20225;-17
2022/08/01 12:15:24;;;;;;;3.42;2.00;;;;;;;;;;5089153;28;20716;-17
2022/08/01 12:17:52;;;;;;;4.95;1.88;;;;;;;;;;5089062;28;20311;-17
2022/08/01 12:20:25;;;;;;;6.15;2.03;;;;;;;;;;5092068;28;20237;-17
2022/08/01 12:22:56;;;;;;;3.55;1.83;;;;;;;;;;5091643;28;20237;-17
2022/08/01 12:25:25;;;;;;;7.95;2.10;;;;;;;;;;5080876;28;20235;-17
2022/08/01 12:27:53;;;;;;;4.97;2.15;;;;;;;;;;5091745;28;20251;-17
2022/08/01 12:30:23;;;;;;;3.88;2.05;;;;;;;;;;5089265;28;20237;-17
2022/08/01 12:32:51;;;;;;;3.90;1.80;;;;;;;;;;5085514;28;20758;-17
2022/08/01 12:35:19;;;;;;;4.68;1.67;;;;;;;;;;5060218;28;20230;-17
2022/08/01 12:37:47;;;;;;;3.97;1.92;;;;;;;;;;5080055;28;20229;-17
2022/08/01 12:40:15;;;;;;;3.47;1.98;;;;;;;;;;5092276;28;20232;-17
2022/08/01 12:42:44;;;;;;;6.85;2.33;;;;;;;;;;5078495;28;20232;-17
2022/08/01 12:45:12;;;;;;;3.28;1.80;;;;;;;;;;5089643;28;20703;-17
2022/08/01 12:47:40;;;;;;;6.97;2.00;;;;;;;;;;5091590;28;20244;-17
2022/08/01 12:50:08;;;;;;;4.40;1.90;;;;;;;;;;5091800;28;21006;-17
2022/08/01 12:52:35;;;;;;;4.38;1.75;;;;;;;;;;5091556;28;20229;-17
2022/08/01 12:55:09;;;;;;;3.95;1.60;;;;;;;;;;5091269;28;20237;-17
2022/08/01 12:57:38;;;;;;;2.83;1.58;;;;;;;;;;5082036;28;20698;-17
2022/08/01 13:00:08;;;;;;;6.15;1.95;;;;;;;;;;5090830;28;20235;-17
2022/08/01 13:02:35;;;;;;;5.85;2.08;;;;;;;;;;5088076;28;20228;-17
2022/08/01 13:05:03;;;;;;;5.07;1.77;;;;;;;;;;5091966;28;20787;-17
2022/08/01 13:07:37;;;;;;;5.05;1.60;;;;;;;;;;5087780;28;20245;-16
2022/08/01 13:10:12;;;;;;;4.40;1.50;;;;;;;;;;5091143;28;20232;-17
2022/08/01 13:12:39;;;;;;;4.00;2.15;;;;;;;;;;5084007;28;20955;-17
2022/08/01 13:15:18;;;;;;;4.20;1.80;;;;;;;;;;5090443;28;20239;-18
2022/08/01 13:17:45;;;;;;;4.03;1.80;;;;;;;;;;5086667;28;20228;-18
2022/08/01 13:20:21;;;;;;;4.18;1.80;;;;;;;;;;5080773;28;20252;-18
2022/08/01 13:22:49;;;;;;;4.07;1.95;;;;;;;;;;5090391;28;21049;-18
2022/08/01 13:25:21;;;;;;;2.83;1.52;;;;;;;;;;5083113;28;20225;-18
2022/08/01 13:28:07;;;;;;;7.78;1.77;;;;;;;;;;5085697;28;20719;-18
2022/08/01 13:30:35;;;;;;;3.92;1.77;;;;;;;;;;5082474;28;20234;-18
2022/08/01 13:33:03;;;;;;;6.70;1.85;;;;;;;;;;5086503;28;20872;-16
2022/08/01 13:35:30;;;;;;;5.20;2.00;;;;;;;;;;5083311;28;20735;-18
2022/08/01 13:37:58;;;;;;;5.32;1.75;;;;;;;;;;5080850;28;20229;-17
2022/08/01 13:40:26;;;;;;;3.85;1.50;;;;;;;;;;5086397;28;20229;-17
2022/08/01 13:42:54;;;;;;;3.17;1.63;;;;;;;;;;5079398;28;20241;-16
2022/08/01 13:45:22;;;;;;;4.80;1.73;;;;;;;;;;5089351;28;20229;-17
2022/08/01 13:47:53;;;;;;;4.35;1.90;;;;;;;;;;5091107;28;20315;-17
2022/08/01 13:50:39;;;;;;;4.68;1.90;;;;;;;;;;5089650;28;20283;-17
2022/08/01 13:53:06;;;;;;;2.40;1.45;;;;;;;;;;5081890;28;20645;-17
2022/08/01 13:55:34;;;;;;;4.57;1.80;;;;;;;;;;5094417;28;20239;-17
2022/08/01 13:58:02;;;;;;;4.15;1.80;;;;;;;;;;5094376;28;20235;-16
2022/08/01 14:00:29;;;;;;;5.30;1.83;;;;;;;;;;5090845;28;20229;-16
2022/08/01 14:02:58;;;;;;;4.10;1.80;;;;;;;;;;5092067;28;20237;-16
2022/08/01 14:05:26;;;;;;;5.18;1.40;;;;;;;;;;5094434;28;20323;-16
2022/08/01 14:07:53;;;;;;;4.22;1.67;;;;;;;;;;5093854;28;20232;-16
2022/08/01 14:10:25;;;;;;;4.07;1.77;;;;;;;;;;5089451;28;20259;-16
2022/08/01 14:12:52;;;;;;;3.67;1.58;;;;;;;;;;5088995;28;20320;-17
2022/08/01 14:15:23;;;;;;;5.80;2.00;;;;;;;;;;5073473;28;20264;-18
2022/08/01 14:18:07;;;;;;;4.60;1.80;;;;;;;;;;5092511;28;20298;-17
2022/08/01 14:20:36;;;;;;;4.97;1.67;;;;;;;;;;5093400;28;20221;-17
2022/08/01 14:23:04;;;;;;;3.15;1.50;;;;;;;;;;5094004;28;20244;-17
2022/08/01 14:25:35;;;;;;;6.32;2.15;;;;;;;;;;5090947;28;20419;-17
2022/08/01 14:28:23;;;;;;;4.10;1.70;;;;;;;;;;5093499;28;20271;-17
2022/08/01 14:30:50;;;;;;;3.03;1.50;;;;;;;;;;5087792;28;20229;-18
2022/08/01 14:33:19;;;;;;;4.80;1.70;;;;;;;;;;5091304;28;20961;-17
2022/08/01 14:35:46;;;;;;;6.32;2.08;;;;;;;;;;5086822;28;21036;-17
2022/08/01 14:38:32;;;;;;;3.63;1.60;;;;;;;;;;5088292;28;20224;-17
2022/08/01 14:41:02;;;;;;;3.47;1.50;;;;;;;;;;5085024;28;20260;-18
2022/08/01 14:43:31;;;;;;;4.80;1.75;;;;;;;;;;5087084;28;20243;-17
2022/08/01 14:46:00;;;;;;;3.47;1.58;;;;;;;;;;5067529;28;20225;-26
2022/08/01 14:48:29;;;;;;;2.20;1.40;;;;;;;;;;5085952;28;20275;-17
2022/08/01 14:50:56;;;;;;;5.15;1.70;;;;;;;;;;5093473;28;20229;-17
2022/08/01 14:53:24;;;;;;;4.57;1.60;;;;;;;;;;5082430;28;20259;-17
2022/08/01 14:55:51;;;;;;;4.50;1.65;;;;;;;;;;5090968;28;20609;-17
2022/08/01 14:58:19;;;;;;;3.85;1.55;;;;;;;;;;5082486;28;20291;-19